Time;durP1;ratioP1;P1;durP2;ratioP2;P2;SDS_P1;SDS_P2;PMS_P1;PMS_P2;Temp;Humidity;BMP_temperature;BMP_pressure;BME280_temperature;BME280_humidity;BME280_pressure;Samples;Min_cycle;Max_cycle;Signal;HPM_P1;HPM_P2
2023/03/08 00:01:22;;;;;;;10.57;7.93;;;;;;;8.02;67.91;94036.69;5054900;28;20483;-72
2023/03/08 00:03:52;;;;;;;16.43;9.43;;;;;;;7.94;68.26;94038.34;5055206;28;20443;-71
2023/03/08 00:06:19;;;;;;;28.10;15.70;;;;;;;7.86;68.44;94039.03;5055253;28;20538;-72
2023/03/08 00:08:47;;;;;;;28.83;17.30;;;;;;;7.89;68.38;94043.16;5055197;28;20501;-72
2023/03/08 00:11:14;;;;;;;19.77;12.33;;;;;;;7.94;68.47;94041.78;5055280;28;20816;-72
2023/03/08 00:13:42;;;;;;;23.03;11.67;;;;;;;7.98;68.40;94045.78;5054927;28;20991;-71
2023/03/08 00:16:11;;;;;;;15.80;9.53;;;;;;;7.91;68.85;94046.44;5055137;28;20451;-73
2023/03/08 00:18:38;;;;;;;12.23;8.57;;;;;;;7.96;68.30;94044.25;5054892;28;20458;-72
2023/03/08 00:21:07;;;;;;;14.60;9.40;;;;;;;8.00;67.83;94045.63;5054751;28;20537;-70
2023/03/08 00:23:35;;;;;;;15.77;8.33;;;;;;;7.93;68.17;94045.34;5054577;28;20516;-72
2023/03/08 00:26:02;;;;;;;10.20;7.10;;;;;;;7.85;68.79;94045.22;5054822;28;20438;-72
2023/03/08 00:28:28;;;;;;;13.27;8.00;;;;;;;7.72;69.48;94045.44;5054615;28;20484;-71
2023/03/08 00:30:58;;;;;;;11.10;8.53;;;;;;;7.73;69.65;94041.88;5054618;28;20457;-72
2023/03/08 00:33:25;;;;;;;11.83;7.27;;;;;;;7.74;70.03;94046.13;5054562;28;20811;-72
2023/03/08 00:35:57;;;;;;;11.50;7.97;;;;;;;7.72;70.19;94045.44;5035732;28;20492;-72
2023/03/08 00:38:24;;;;;;;17.03;8.93;;;;;;;7.68;70.96;94059.72;5054389;28;20503;-72
2023/03/08 00:40:50;;;;;;;11.90;8.27;;;;;;;7.69;70.95;94050.09;5054428;28;20490;-70
2023/03/08 00:43:17;;;;;;;13.60;8.70;;;;;;;7.73;71.07;94038.44;5054329;28;20453;-72
2023/03/08 00:45:44;;;;;;;11.97;7.70;;;;;;;7.78;70.63;94029.22;5054477;28;20527;-72
2023/03/08 00:48:13;;;;;;;14.53;7.93;;;;;;;7.83;70.97;94028.84;5054174;28;20504;-73
2023/03/08 00:50:39;;;;;;;15.10;7.43;;;;;;;7.85;70.36;94036.56;5054379;28;20442;-72
2023/03/08 00:53:07;;;;;;;14.70;8.70;;;;;;;7.85;70.17;94026.09;5054232;28;20855;-73
2023/03/08 00:55:34;;;;;;;18.40;8.33;;;;;;;7.89;70.57;94030.91;5053874;28;20839;-72
2023/03/08 00:58:01;;;;;;;10.80;7.37;;;;;;;7.94;70.10;94031.34;5054246;28;20499;-73
2023/03/08 01:00:29;;;;;;;10.30;5.83;;;;;;;7.76;70.60;94040.78;5018749;28;21032;-73
2023/03/08 01:02:56;;;;;;;12.17;7.90;;;;;;;7.76;71.30;94044.22;5054040;28;20473;-72
2023/03/08 01:05:24;;;;;;;31.40;13.77;;;;;;;7.77;70.55;94037.19;5053944;28;20816;-72
2023/03/08 01:07:51;;;;;;;35.13;13.57;;;;;;;7.76;70.72;94038.16;5018474;28;20855;-71
2023/03/08 01:10:18;;;;;;;22.63;12.47;;;;;;;7.75;71.07;94039.94;5054228;28;20454;-71
2023/03/08 01:12:45;;;;;;;19.77;11.07;;;;;;;7.70;71.12;94041.31;5053890;28;20451;-70
2023/03/08 01:15:12;;;;;;;20.33;10.37;;;;;;;7.70;70.91;94038.69;5053784;28;20446;-72
2023/03/08 01:17:38;;;;;;;21.67;8.83;;;;;;;7.73;70.94;94049.69;5018706;28;20446;-72
2023/03/08 01:20:07;;;;;;;13.77;8.53;;;;;;;7.70;71.41;94049.16;5053482;28;20516;-72
2023/03/08 01:22:35;;;;;;;12.53;7.50;;;;;;;7.66;70.96;94055.59;5035134;28;20787;-71
2023/03/08 01:25:02;;;;;;;17.97;6.77;;;;;;;7.62;71.18;94047.22;5018387;28;20445;-71
2023/03/08 01:27:28;;;;;;;10.90;6.20;;;;;;;7.64;70.96;94045.28;5053738;28;20471;-73
2023/03/08 01:29:55;;;;;;;11.33;7.70;;;;;;;7.71;71.03;94042.97;5018490;28;21007;-72
2023/03/08 01:32:22;;;;;;;9.17;5.53;;;;;;;7.65;71.15;94048.72;5053351;28;20500;-72
2023/03/08 01:34:49;;;;;;;6.87;6.00;;;;;;;7.65;70.52;94043.50;5034386;28;20473;-72
2023/03/08 01:37:16;;;;;;;8.90;5.73;;;;;;;7.63;70.41;94042.81;5053015;28;20497;-72
2023/03/08 01:39:44;;;;;;;8.83;5.70;;;;;;;7.53;71.29;94042.78;5053276;28;20850;-71
2023/03/08 01:42:10;;;;;;;10.30;6.07;;;;;;;7.56;71.12;94049.53;5053041;28;20840;-71
2023/03/08 01:44:52;;;;;;;8.83;5.63;;;;;;;7.52;71.36;94054.19;5053197;28;20454;-72
2023/03/08 01:47:20;;;;;;;5.77;4.90;;;;;;;7.51;71.90;94051.69;5052850;28;20504;-72
2023/03/08 01:49:48;;;;;;;5.30;4.80;;;;;;;7.52;72.87;94056.81;5053660;28;20500;-72
2023/03/08 01:52:20;;;;;;;5.90;5.17;;;;;;;7.46;72.53;94055.53;5052883;28;20442;-72
2023/03/08 01:54:54;;;;;;;10.07;5.90;;;;;;;7.31;73.59;94046.41;5052919;28;20481;-72
2023/03/08 01:57:25;;;;;;;10.23;4.80;;;;;;;7.24;73.81;94047.06;5052724;28;20444;-72
2023/03/08 01:59:56;;;;;;;8.07;5.60;;;;;;;7.29;73.97;94050.94;5053139;28;20783;-72
2023/03/08 02:02:26;;;;;;;7.67;4.93;;;;;;;7.35;73.58;94046.97;5052888;28;20477;-72
2023/03/08 02:04:53;;;;;;;9.20;5.90;;;;;;;7.38;73.45;94057.16;5052872;28;20442;-72
2023/03/08 02:07:20;;;;;;;9.50;5.70;;;;;;;7.36;73.52;94057.28;5052675;28;20811;-72
2023/03/08 02:09:48;;;;;;;6.70;6.07;;;;;;;7.41;73.82;94056.88;5052075;28;20822;-72
2023/03/08 02:12:17;;;;;;;8.13;5.20;;;;;;;7.41;73.36;94052.50;5052776;28;21097;-70
2023/03/08 02:14:44;;;;;;;5.73;5.13;;;;;;;7.41;72.69;94057.72;5052489;28;20445;-72
2023/03/08 02:17:11;;;;;;;11.00;6.70;;;;;;;7.39;72.86;94051.78;5052768;28;20451;-72
2023/03/08 02:19:45;;;;;;;6.37;5.30;;;;;;;7.41;73.18;94046.44;5052587;28;20438;-73
2023/03/08 02:22:12;;;;;;;5.97;5.13;;;;;;;7.47;73.22;94046.72;5052621;28;20489;-72
2023/03/08 02:24:41;;;;;;;7.67;5.50;;;;;;;7.38;72.70;94044.94;5052182;28;20454;-72
2023/03/08 02:27:13;;;;;;;6.37;5.60;;;;;;;7.26;73.46;94060.81;5052137;28;20527;-73
2023/03/08 02:29:40;;;;;;;6.17;5.33;;;;;;;7.19;73.53;94059.66;5052234;28;20956;-72
2023/03/08 02:32:07;;;;;;;9.90;6.50;;;;;;;7.18;73.14;94051.00;5052553;28;20837;-72
2023/03/08 02:34:34;;;;;;;10.93;6.70;;;;;;;7.11;73.69;94042.06;5052384;28;20538;-71
2023/03/08 02:37:01;;;;;;;8.10;6.33;;;;;;;7.01;73.55;94055.06;5052366;28;20460;-71
2023/03/08 02:39:28;;;;;;;8.20;6.60;;;;;;;6.81;74.30;94064.53;5052355;28;20462;-72
2023/03/08 02:41:56;;;;;;;10.93;7.30;;;;;;;6.75;75.31;94070.28;5052362;28;20477;-72
2023/03/08 02:44:23;;;;;;;9.80;6.57;;;;;;;6.68;75.20;94071.75;5051859;28;20442;-72
2023/03/08 02:46:50;;;;;;;9.73;6.43;;;;;;;6.53;76.01;94059.97;5052515;28;20445;-72
2023/03/08 02:49:17;;;;;;;14.40;9.97;;;;;;;6.36;77.07;94068.31;5052010;28;20448;-71
2023/03/08 02:51:44;;;;;;;7.03;6.27;;;;;;;6.43;77.24;94077.31;5052364;28;20445;-71
2023/03/08 02:54:11;;;;;;;9.37;7.03;;;;;;;6.39;77.45;94086.34;5052258;28;20781;-72
2023/03/08 02:56:38;;;;;;;14.07;8.03;;;;;;;6.38;76.65;94069.88;5052018;28;20458;-71
2023/03/08 02:59:06;;;;;;;12.20;7.40;;;;;;;6.45;77.20;94085.84;5052222;28;20515;-71
2023/03/08 03:01:33;;;;;;;9.37;5.80;;;;;;;6.45;77.23;94071.03;5051767;28;20543;-71
2023/03/08 03:03:59;;;;;;;6.57;4.90;;;;;;;6.33;78.05;94068.56;5052144;28;20441;-70
2023/03/08 03:06:26;;;;;;;8.60;5.30;;;;;;;6.47;78.62;94102.16;5052232;28;20815;-72
2023/03/08 03:08:53;;;;;;;7.83;5.13;;;;;;;6.51;77.24;94093.97;5052179;28;20434;-72
2023/03/08 03:11:22;;;;;;;5.77;4.77;;;;;;;6.55;76.41;94076.31;5052076;28;20932;-72
2023/03/08 03:13:55;;;;;;;7.57;5.40;;;;;;;6.63;76.17;94088.69;5052318;28;20453;-72
2023/03/08 03:16:23;;;;;;;9.63;5.33;;;;;;;6.69;76.39;94096.03;5052123;28;20507;-73
2023/03/08 03:18:50;;;;;;;11.00;6.00;;;;;;;6.68;76.00;94097.81;5052347;28;20495;-71
2023/03/08 03:21:16;;;;;;;9.20;6.30;;;;;;;6.69;76.70;94099.47;5019884;28;20484;-71
2023/03/08 03:23:43;;;;;;;7.13;6.20;;;;;;;6.68;76.11;94097.00;5056465;28;20457;-71
2023/03/08 03:26:12;;;;;;;9.30;5.73;;;;;;;6.68;76.12;94091.78;5056019;28;20514;-71
2023/03/08 03:28:39;;;;;;;8.00;5.23;;;;;;;6.70;75.47;94097.69;5056117;28;20541;-72
2023/03/08 03:31:07;;;;;;;7.20;6.17;;;;;;;6.66;75.83;94086.69;5056389;28;20520;-72
2023/03/08 03:33:36;;;;;;;12.17;7.07;;;;;;;6.39;76.45;94094.16;5056207;28;21001;-72
2023/03/08 03:36:03;;;;;;;15.43;6.10;;;;;;;6.17;78.77;94103.69;5055959;28;20514;-72
2023/03/08 03:38:30;;;;;;;14.73;7.90;;;;;;;6.26;77.64;94119.53;5055873;28;20507;-72
2023/03/08 03:41:01;;;;;;;14.37;8.40;;;;;;;6.14;78.47;94100.50;5056004;28;20540;-72
2023/03/08 03:43:28;;;;;;;13.53;7.40;;;;;;;6.15;79.87;94097.78;5055950;28;20955;-71
2023/03/08 03:45:56;;;;;;;8.60;6.07;;;;;;;6.17;79.87;94108.06;5056182;28;20476;-72
2023/03/08 03:48:26;;;;;;;7.83;5.20;;;;;;;6.21;79.51;94106.88;5056122;28;20488;-72
2023/03/08 03:50:59;;;;;;;8.10;6.03;;;;;;;6.29;79.49;94114.06;5056155;28;20903;-72
2023/03/08 03:53:28;;;;;;;7.20;6.40;;;;;;;6.34;78.53;94117.94;5055692;28;20510;-71
2023/03/08 03:55:54;;;;;;;8.87;6.43;;;;;;;6.44;78.31;94129.31;5055929;28;20445;-70
2023/03/08 03:58:21;;;;;;;12.03;6.10;;;;;;;6.53;78.19;94131.16;5055941;28;20445;-71
2023/03/08 04:00:48;;;;;;;12.73;7.37;;;;;;;6.53;77.99;94135.53;5055713;28;20445;-72
2023/03/08 04:03:15;;;;;;;8.30;6.53;;;;;;;6.47;77.12;94125.63;5055626;28;21030;-70
2023/03/08 04:05:42;;;;;;;7.97;6.10;;;;;;;6.39;77.08;94122.81;5055767;28;20453;-72
2023/03/08 04:08:10;;;;;;;6.50;5.50;;;;;;;6.28;78.43;94125.44;5054963;28;20445;-72
2023/03/08 04:10:36;;;;;;;13.83;6.27;;;;;;;6.14;78.95;94118.75;5054784;28;20816;-72
2023/03/08 04:13:03;;;;;;;8.47;5.23;;;;;;;6.13;79.10;94115.31;5054621;28;20944;-72
2023/03/08 04:15:30;;;;;;;6.93;5.23;;;;;;;6.19;80.22;94116.59;5054950;28;20997;-72
2023/03/08 04:17:57;;;;;;;11.27;6.03;;;;;;;6.22;79.20;94114.56;5054667;28;20518;-70
2023/03/08 04:20:24;;;;;;;10.37;5.87;;;;;;;6.31;79.47;94118.19;5054769;28;20438;-70
2023/03/08 04:22:51;;;;;;;7.33;4.87;;;;;;;6.37;79.38;94116.91;5054512;28;20481;-73
2023/03/08 04:25:19;;;;;;;6.90;5.00;;;;;;;6.39;78.37;94125.44;5054835;28;20506;-73
2023/03/08 04:27:46;;;;;;;8.20;5.47;;;;;;;6.36;78.87;94120.44;5054654;28;20448;-71
2023/03/08 04:30:13;;;;;;;7.50;5.70;;;;;;;6.39;78.49;94123.66;5054918;28;20486;-72
2023/03/08 04:32:40;;;;;;;5.77;5.10;;;;;;;6.42;78.45;94125.16;5053944;28;20535;-73
2023/03/08 04:35:08;;;;;;;6.37;5.20;;;;;;;6.44;77.79;94123.28;5054249;28;20557;-72
2023/03/08 04:37:35;;;;;;;6.47;4.80;;;;;;;6.49;78.54;94121.13;5053988;28;20916;-71
2023/03/08 04:40:06;;;;;;;10.40;5.23;;;;;;;6.53;77.81;94128.56;5054465;28;20465;-72
2023/03/08 04:42:34;;;;;;;5.93;5.33;;;;;;;6.63;77.16;94120.81;5054512;28;20555;-71
2023/03/08 04:45:00;;;;;;;8.70;5.53;;;;;;;6.69;76.53;94125.53;5054868;28;20446;-73
2023/03/08 04:47:27;;;;;;;10.70;7.80;;;;;;;6.56;77.27;94116.22;5054475;28;20845;-71
2023/03/08 04:49:54;;;;;;;9.40;7.43;;;;;;;6.47;77.23;94117.81;5054645;28;20441;-73
2023/03/08 04:52:21;;;;;;;9.65;6.95;;;;;;;6.62;78.08;94124.38;5053721;28;20845;-74
2023/03/08 04:54:47;;;;;;;17.90;6.87;;;;;;;6.67;76.82;94130.06;5054518;28;20268;-73
2023/03/08 04:57:14;;;;;;;11.80;6.17;;;;;;;6.63;76.95;94127.78;5054639;28;20446;-74
2023/03/08 04:59:45;;;;;;;7.03;6.10;;;;;;;6.63;76.97;94128.63;5035378;28;20467;-74
2023/03/08 05:02:11;;;;;;;8.63;5.20;;;;;;;6.62;77.68;94132.19;5054357;28;20485;-71
2023/03/08 05:04:38;;;;;;;6.60;5.50;;;;;;;6.51;77.61;94119.22;5054327;28;20492;-73
2023/03/08 05:07:05;;;;;;;7.73;5.67;;;;;;;6.50;77.72;94130.59;5054261;28;20446;-74
2023/03/08 05:09:32;;;;;;;15.87;6.33;;;;;;;6.59;77.84;94132.44;5053812;28;20575;-75
2023/03/08 05:11:59;;;;;;;9.50;6.33;;;;;;;6.66;76.89;94138.81;5054181;28;20468;-73
2023/03/08 05:14:28;;;;;;;8.57;5.40;;;;;;;6.74;76.73;94136.41;5054157;28;20442;-74
2023/03/08 05:16:57;;;;;;;14.43;5.90;;;;;;;6.86;76.42;94150.22;5054358;28;20456;-73
2023/03/08 05:19:25;;;;;;;12.23;6.80;;;;;;;6.84;76.13;94157.34;5053735;28;20924;-74
2023/03/08 05:21:52;;;;;;;76.47;25.40;;;;;;;6.84;76.95;94149.50;5054699;28;20562;-74
2023/03/08 05:24:18;;;;;;;46.53;17.27;;;;;;;6.92;76.37;94154.91;5053185;28;20499;-74
2023/03/08 05:26:45;;;;;;;48.30;19.13;;;;;;;7.02;76.54;94160.22;5053188;28;20503;-73
2023/03/08 05:29:12;;;;;;;37.10;17.77;;;;;;;7.11;76.59;94164.66;5052903;28;21119;-73
2023/03/08 05:31:38;;;;;;;36.20;14.90;;;;;;;7.47;77.28;94173.81;5052541;28;20446;-73
2023/03/08 05:34:07;;;;;;;15.20;9.57;;;;;;;8.04;74.04;94178.47;5052911;28;20478;-74
2023/03/08 05:36:33;;;;;;;8.83;7.07;;;;;;;8.42;72.30;94184.81;5052769;28;20451;-73
2023/03/08 05:39:00;;;;;;;14.77;6.10;;;;;;;8.74;70.35;94196.84;5053438;28;20907;-74
2023/03/08 05:41:27;;;;;;;10.33;7.33;;;;;;;9.03;68.56;94184.59;5034532;28;21222;-73
2023/03/08 05:43:54;;;;;;;12.50;6.10;;;;;;;9.20;67.89;94194.34;5052281;28;20483;-73
2023/03/08 05:46:21;;;;;;;13.00;6.10;;;;;;;9.22;67.99;94195.03;5052772;28;20452;-73
2023/03/08 05:48:47;;;;;;;11.13;6.30;;;;;;;9.12;67.53;94209.94;5053318;28;20441;-73
2023/03/08 05:51:17;;;;;;;8.40;6.70;;;;;;;8.95;68.61;94202.75;5053220;28;20927;-74
2023/03/08 05:53:45;;;;;;;9.37;6.07;;;;;;;8.74;69.42;94196.84;5053051;28;20931;-73
2023/03/08 05:56:14;;;;;;;20.17;6.97;;;;;;;8.75;73.08;94203.72;5052981;28;20452;-73
2023/03/08 05:58:41;;;;;;;8.67;7.03;;;;;;;8.74;72.98;94205.50;5052739;28;20452;-73
2023/03/08 06:01:12;;;;;;;14.83;9.50;;;;;;;8.70;71.15;94217.22;5052937;28;20458;-73
2023/03/08 06:03:39;;;;;;;12.93;7.60;;;;;;;8.67;71.38;94209.59;5052546;28;20487;-74
2023/03/08 06:06:06;;;;;;;18.83;7.53;;;;;;;9.02;72.54;94211.72;5039233;28;20480;-75
2023/03/08 06:08:34;;;;;;;13.10;7.50;;;;;;;9.53;70.46;94224.50;5032465;28;20450;-72
2023/03/08 06:11:01;;;;;;;15.27;8.83;;;;;;;10.12;68.89;94225.16;5048625;28;20435;-73
2023/03/08 06:13:28;;;;;;;14.60;9.67;;;;;;;10.80;64.97;94226.53;5047219;28;20437;-73
2023/03/08 06:15:55;;;;;;;19.73;10.47;;;;;;;11.56;63.50;94222.63;5048020;28;20513;-73
2023/03/08 06:18:23;;;;;;;19.67;10.70;;;;;;;11.98;62.20;94217.56;5052298;28;20511;-73
2023/03/08 06:20:58;;;;;;;12.27;8.07;;;;;;;12.48;59.27;94214.22;5051822;28;20454;-73
2023/03/08 06:23:25;;;;;;;19.00;8.90;;;;;;;12.74;58.03;94225.50;5052229;28;21059;-73
2023/03/08 06:25:53;;;;;;;13.53;8.80;;;;;;;12.86;58.00;94234.75;5052396;28;20449;-74
2023/03/08 06:28:21;;;;;;;21.10;8.00;;;;;;;13.23;57.50;94230.91;5052406;28;20449;-73
2023/03/08 06:30:49;;;;;;;11.10;7.60;;;;;;;13.21;55.16;94232.88;5051352;28;20452;-74
2023/03/08 06:33:16;;;;;;;11.83;8.70;;;;;;;13.07;55.82;94236.94;5034689;28;20454;-74
2023/03/08 06:35:43;;;;;;;27.00;10.40;;;;;;;12.84;57.18;94235.88;5009058;28;20465;-75
2023/03/08 06:38:10;;;;;;;19.37;11.40;;;;;;;12.59;58.53;94250.75;5039818;28;20492;-72
2023/03/08 06:40:37;;;;;;;13.50;10.30;;;;;;;12.43;59.58;94242.78;5051015;28;20437;-73
2023/03/08 06:43:05;;;;;;;19.47;11.90;;;;;;;12.33;59.75;94235.84;5016923;28;20493;-73
2023/03/08 06:45:32;;;;;;;20.77;11.97;;;;;;;12.16;59.92;94246.44;5043413;28;20863;-73
2023/03/08 06:47:59;;;;;;;20.07;11.30;;;;;;;12.07;61.35;94256.06;5052053;28;20452;-73
2023/03/08 06:50:26;;;;;;;25.97;11.90;;;;;;;12.00;62.59;94247.97;5050335;28;20868;-75
2023/03/08 06:52:52;;;;;;;24.13;12.57;;;;;;;11.81;62.39;94240.28;5051952;28;20449;-73
2023/03/08 06:55:19;;;;;;;18.13;8.43;;;;;;;11.68;61.83;94250.34;5052017;28;20446;-72
2023/03/08 06:57:46;;;;;;;16.50;9.30;;;;;;;12.30;61.98;94254.56;5035223;28;20454;-73
2023/03/08 07:00:15;;;;;;;17.40;10.80;;;;;;;12.94;60.90;94249.72;5038723;28;20475;-73
2023/03/08 07:02:42;;;;;;;14.57;7.97;;;;;;;13.39;57.50;94257.28;5051807;28;20547;-74
2023/03/08 07:05:10;;;;;;;9.50;6.43;;;;;;;13.38;57.44;94263.53;5048141;28;20450;-73
2023/03/08 07:07:38;;;;;;;8.57;6.63;;;;;;;13.22;57.02;94274.03;5051824;28;20507;-73
2023/03/08 07:10:06;;;;;;;10.47;6.53;;;;;;;13.35;57.70;94270.97;5046449;28;20455;-74
2023/03/08 07:12:35;;;;;;;8.27;5.27;;;;;;;13.11;56.79;94274.31;5031707;28;20991;-73
2023/03/08 07:15:02;;;;;;;9.63;5.50;;;;;;;13.00;58.02;94270.16;4997774;28;20439;-74
2023/03/08 07:17:31;;;;;;;8.50;5.50;;;;;;;12.89;60.90;94281.00;5032415;28;20531;-74
2023/03/08 07:19:58;;;;;;;9.80;7.50;;;;;;;12.77;58.67;94288.34;5032447;28;20939;-77
2023/03/08 07:22:29;;;;;;;7.20;6.20;;;;;;;12.49;58.87;94287.72;5031565;28;20983;-74
2023/03/08 07:24:56;;;;;;;8.10;6.17;;;;;;;12.26;60.19;94278.72;5032037;28;20516;-74
2023/03/08 07:27:23;;;;;;;12.20;6.60;;;;;;;12.01;61.70;94290.88;5031990;28;20464;-74
2023/03/08 07:29:50;;;;;;;13.53;7.60;;;;;;;11.99;62.95;94295.47;5031820;28;20973;-74
2023/03/08 07:32:17;;;;;;;11.47;7.40;;;;;;;12.08;62.06;94300.63;5050118;28;20474;-73
2023/03/08 07:34:45;;;;;;;10.90;6.13;;;;;;;12.18;62.34;94297.91;5051859;28;20482;-75
2023/03/08 07:37:12;;;;;;;11.63;7.33;;;;;;;12.13;61.42;94288.81;5051803;28;20513;-72
2023/03/08 07:39:39;;;;;;;8.77;7.27;;;;;;;12.10;61.98;94290.75;5051630;28;20937;-74
2023/03/08 07:42:06;;;;;;;9.40;6.40;;;;;;;12.06;62.11;94280.72;5052049;28;20940;-74
2023/03/08 07:44:33;;;;;;;14.97;7.20;;;;;;;12.12;62.29;94282.72;5051892;28;20441;-74
2023/03/08 07:47:00;;;;;;;9.90;7.30;;;;;;;12.17;62.43;94277.84;5051714;28;20445;-74
2023/03/08 07:49:26;;;;;;;11.27;8.10;;;;;;;12.23;61.01;94285.13;5052166;28;20913;-75
2023/03/08 07:51:54;;;;;;;13.50;9.40;;;;;;;12.29;61.14;94288.91;5051532;28;20454;-74
2023/03/08 07:54:22;;;;;;;15.27;8.90;;;;;;;12.22;62.15;94282.63;5051730;28;20446;-74
2023/03/08 07:56:49;;;;;;;11.20;7.73;;;;;;;12.23;62.54;94285.13;5051899;28;20458;-74
2023/03/08 07:59:15;;;;;;;12.30;7.57;;;;;;;12.23;61.53;94282.47;5051504;28;20492;-75
2023/03/08 08:01:42;;;;;;;12.67;7.67;;;;;;;12.22;61.20;94282.63;5051741;28;20446;-73
2023/03/08 08:04:11;;;;;;;13.17;7.40;;;;;;;12.01;62.03;94286.44;5051732;28;20489;-74
2023/03/08 08:06:38;;;;;;;15.80;7.17;;;;;;;11.95;64.00;94294.94;5053028;28;20445;-74
2023/03/08 08:09:07;;;;;;;11.20;6.57;;;;;;;11.77;63.74;94296.72;5055545;28;20495;-73
2023/03/08 08:11:34;;;;;;;11.00;7.63;;;;;;;11.79;63.30;94298.25;5036742;28;20908;-74
2023/03/08 08:14:01;;;;;;;22.37;9.63;;;;;;;11.82;64.54;94291.03;5055510;28;20954;-74
2023/03/08 08:16:28;;;;;;;14.20;8.50;;;;;;;11.85;64.55;94296.00;5055058;28;20864;-74
2023/03/08 08:18:54;;;;;;;12.80;7.50;;;;;;;11.88;64.36;94293.09;5055120;28;20924;-74
2023/03/08 08:21:21;;;;;;;15.30;9.27;;;;;;;11.88;63.54;94286.03;5020101;28;20449;-74
2023/03/08 08:23:48;;;;;;;11.77;6.97;;;;;;;11.94;63.18;94289.84;5055152;28;20546;-74
2023/03/08 08:26:19;;;;;;;7.83;6.20;;;;;;;12.02;64.37;94289.88;5055016;28;20453;-74
2023/03/08 08:28:47;;;;;;;11.40;6.40;;;;;;;12.24;62.54;94285.94;5055066;28;20445;-73
2023/03/08 08:31:16;;;;;;;8.13;5.83;;;;;;;12.44;62.60;94289.19;5054996;28;20450;-74
2023/03/08 08:33:43;;;;;;;14.53;8.67;;;;;;;12.64;62.13;94290.59;5055109;28;20481;-74
2023/03/08 08:36:13;;;;;;;12.37;6.97;;;;;;;12.91;60.75;94300.09;5054749;28;20883;-73
2023/03/08 08:38:42;;;;;;;12.33;7.70;;;;;;;13.10;61.08;94291.13;5054987;28;20445;-74
2023/03/08 08:41:09;;;;;;;8.17;5.60;;;;;;;13.40;59.54;94295.00;5054747;28;20505;-74
2023/03/08 08:43:37;;;;;;;6.30;5.40;;;;;;;13.61;59.01;94300.66;5054717;28;20490;-73
2023/03/08 08:46:05;;;;;;;7.40;5.60;;;;;;;13.55;58.40;94288.09;5054909;28;20451;-75
2023/03/08 08:48:32;;;;;;;8.13;5.23;;;;;;;13.70;58.37;94283.03;5054733;28;20517;-74
2023/03/08 08:51:00;;;;;;;7.67;5.63;;;;;;;13.65;58.12;94288.78;5054454;28;20866;-74
2023/03/08 08:53:28;;;;;;;9.63;6.50;;;;;;;13.53;57.95;94293.53;5054775;28;20443;-74
2023/03/08 08:55:54;;;;;;;8.83;5.17;;;;;;;13.37;58.22;94301.44;5054406;28;20443;-74
2023/03/08 08:58:21;;;;;;;8.77;6.10;;;;;;;13.31;58.59;94297.63;5054223;28;20444;-74
2023/03/08 09:00:49;;;;;;;11.13;5.60;;;;;;;13.29;58.35;94293.47;5054433;28;20444;-73
2023/03/08 09:03:16;;;;;;;9.20;5.60;;;;;;;13.27;59.46;94290.19;5053998;28;20487;-75
2023/03/08 09:05:45;;;;;;;6.97;5.77;;;;;;;13.18;59.65;94291.16;5035668;28;20446;-74
2023/03/08 09:08:12;;;;;;;15.50;6.70;;;;;;;13.23;59.49;94294.13;5054539;28;20447;-74
2023/03/08 09:10:40;;;;;;;15.30;6.60;;;;;;;13.27;58.95;94298.09;5054472;28;20530;-74
2023/03/08 09:13:07;;;;;;;10.30;5.77;;;;;;;13.26;59.13;94296.44;5053972;28;21001;-75
2023/03/08 09:15:35;;;;;;;11.13;5.80;;;;;;;13.27;59.10;94293.66;5053892;28;20505;-74
2023/03/08 09:18:03;;;;;;;7.90;5.30;;;;;;;13.35;59.20;94286.78;5054253;28;20521;-73
2023/03/08 09:20:30;;;;;;;10.30;6.50;;;;;;;13.31;58.14;94283.63;5054354;28;20506;-74
2023/03/08 09:22:57;;;;;;;10.43;5.50;;;;;;;13.17;59.12;94290.34;5054050;28;20496;-74
2023/03/08 09:25:24;;;;;;;15.50;6.33;;;;;;;13.27;59.25;94290.19;5035457;28;20451;-74
2023/03/08 09:27:51;;;;;;;10.63;5.90;;;;;;;13.22;58.00;94287.22;5054006;28;20862;-74
2023/03/08 09:30:18;;;;;;;5.57;4.60;;;;;;;13.12;58.87;94289.13;5054318;28;20442;-74
2023/03/08 09:32:45;;;;;;;15.97;6.80;;;;;;;13.20;57.58;94284.75;5053794;28;20872;-73
2023/03/08 09:35:14;;;;;;;11.70;6.30;;;;;;;13.22;58.00;94279.31;5053481;28;20475;-74
2023/03/08 09:37:41;;;;;;;16.80;6.73;;;;;;;13.23;58.04;94270.41;5053806;28;20460;-74
2023/03/08 09:40:18;;;;;;;7.70;6.20;;;;;;;13.23;58.17;94275.69;5053602;28;20496;-74
2023/03/08 09:42:45;;;;;;;12.47;6.60;;;;;;;13.46;57.51;94279.38;5053789;28;20451;-75
2023/03/08 09:45:22;;;;;;;10.63;5.70;;;;;;;13.52;56.72;94267.34;5053806;28;20529;-73
2023/03/08 09:47:55;;;;;;;6.90;6.20;;;;;;;13.63;56.38;94269.69;5053604;28;20525;-74
2023/03/08 09:50:43;;;;;;;9.43;4.90;;;;;;;13.85;55.61;94269.00;5053387;28;20443;-74
2023/03/08 09:53:18;;;;;;;8.37;6.20;;;;;;;14.01;54.52;94273.47;5018230;28;20436;-74
2023/03/08 09:55:48;;;;;;;10.90;5.60;;;;;;;14.22;55.14;94271.13;5053503;28;20451;-74
2023/03/08 09:58:22;;;;;;;12.57;6.10;;;;;;;14.41;53.35;94263.81;5053349;28;20993;-74
2023/03/08 10:00:49;;;;;;;12.13;5.80;;;;;;;14.59;54.13;94261.00;5034427;28;20471;-73
2023/03/08 10:03:30;;;;;;;7.83;5.10;;;;;;;14.64;53.77;94254.22;5034470;28;20500;-75
2023/03/08 10:06:04;;;;;;;9.00;6.13;;;;;;;14.69;53.82;94266.91;5053565;28;20499;-74
2023/03/08 10:08:35;;;;;;;12.83;7.10;;;;;;;14.71;52.57;94254.38;5053204;28;20449;-74
2023/03/08 10:11:06;;;;;;;11.37;7.47;;;;;;;14.60;52.44;94252.91;5052722;28;21014;-74
2023/03/08 10:13:35;;;;;;;22.07;7.93;;;;;;;14.61;53.52;94249.28;5053139;28;20456;-74
2023/03/08 10:16:11;;;;;;;19.03;8.17;;;;;;;14.60;53.39;94250.28;5052729;28;20444;-74
2023/03/08 10:18:44;;;;;;;15.47;8.70;;;;;;;14.75;54.09;94245.94;5052757;28;20444;-74
2023/03/08 10:21:16;;;;;;;14.13;8.20;;;;;;;14.86;52.30;94242.09;5052856;28;20889;-74
2023/03/08 10:23:45;;;;;;;16.07;7.53;;;;;;;14.92;52.32;94237.94;5052634;28;20527;-73
2023/03/08 10:26:12;;;;;;;10.43;8.10;;;;;;;14.90;52.13;94238.13;5052423;28;20452;-74
2023/03/08 10:28:39;;;;;;;16.10;8.40;;;;;;;14.99;52.15;94242.34;5052538;28;20532;-73
2023/03/08 10:31:20;;;;;;;15.47;8.50;;;;;;;15.05;51.79;94241.69;5052693;28;20488;-74
2023/03/08 10:33:49;;;;;;;11.10;9.17;;;;;;;15.12;52.27;94244.44;5052530;28;20477;-74
2023/03/08 10:36:21;;;;;;;17.47;8.80;;;;;;;14.97;51.41;94240.88;5052500;28;20450;-74
2023/03/08 10:39:08;;;;;;;11.93;7.67;;;;;;;14.45;53.02;94242.22;5052843;28;20452;-74
2023/03/08 10:41:42;;;;;;;16.57;8.93;;;;;;;14.40;53.07;94230.50;5052740;28;20790;-75
2023/03/08 10:44:14;;;;;;;13.70;7.90;;;;;;;14.35;53.01;94232.84;5052458;28;20549;-74
2023/03/08 10:46:47;;;;;;;12.67;7.73;;;;;;;14.27;53.64;94231.03;5052515;28;20449;-73
2023/03/08 10:49:17;;;;;;;15.50;7.80;;;;;;;14.29;53.32;94228.22;5052551;28;20964;-74
2023/03/08 10:51:55;;;;;;;8.43;7.30;;;;;;;14.31;53.08;94224.44;5052500;28;20452;-72
2023/03/08 10:54:22;;;;;;;14.03;7.97;;;;;;;14.21;53.28;94221.16;5052494;28;20500;-74
2023/03/08 10:56:55;;;;;;;12.93;7.33;;;;;;;14.24;53.95;94224.28;5052441;28;20451;-73
2023/03/08 10:59:31;;;;;;;8.07;7.10;;;;;;;14.07;54.13;94214.75;5052101;28;20499;-74
2023/03/08 11:02:00;;;;;;;12.43;7.07;;;;;;;14.18;54.27;94217.06;5050199;28;20456;-74
2023/03/08 11:04:30;;;;;;;10.60;7.33;;;;;;;14.34;54.59;94215.34;5050577;28;20873;-75
2023/03/08 11:06:58;;;;;;;10.77;6.70;;;;;;;14.30;53.32;94211.41;5044503;28;20449;-74
2023/03/08 11:09:28;;;;;;;16.20;6.63;;;;;;;14.15;54.37;94203.34;5031824;28;20447;-74
2023/03/08 11:11:55;;;;;;;14.63;8.07;;;;;;;14.34;53.32;94202.97;5042360;28;20862;-75
2023/03/08 11:14:23;;;;;;;8.83;6.73;;;;;;;14.52;53.90;94197.50;5001533;28;20541;-75
2023/03/08 11:16:59;;;;;;;12.47;7.53;;;;;;;14.68;52.63;94196.59;5051972;28;20445;-75
2023/03/08 11:19:58;;;;;;;11.10;6.63;;;;;;;14.94;53.02;94185.75;5052064;28;20449;-74
2023/03/08 11:22:38;;;;;;;12.70;6.60;;;;;;;15.11;50.35;94182.84;5045845;28;20464;-74
2023/03/08 11:25:22;;;;;;;8.00;7.20;;;;;;;15.16;49.68;94174.38;5051044;28;20868;-73
2023/03/08 11:28:19;;;;;;;10.30;8.13;;;;;;;15.05;52.62;94169.53;5032284;28;20449;-74
2023/03/08 11:30:59;;;;;;;18.47;7.70;;;;;;;14.83;53.00;94155.28;5051505;28;20526;-74
2023/03/08 11:33:46;;;;;;;10.73;7.60;;;;;;;14.81;52.48;94142.25;5046917;28;20876;-74
2023/03/08 11:36:21;;;;;;;13.87;7.43;;;;;;;14.83;51.56;94139.44;5035294;28;20446;-75
2023/03/08 11:38:57;;;;;;;10.70;7.47;;;;;;;15.15;52.66;94136.56;5051247;28;20450;-75